sensor_id;sensor_type;location;lat;lon;timestamp;P1;durP1;ratioP1;P2;durP2;ratioP2
22754;SDS011;11544;42.020;23.094;2023-02-13T00:01:24;56.10;;;23.20;;
22754;SDS011;11544;42.020;23.094;2023-02-13T00:03:54;32.13;;;15.77;;
22754;SDS011;11544;42.020;23.094;2023-02-13T00:06:24;24.10;;;12.43;;
22754;SDS011;11544;42.020;23.094;2023-02-13T00:08:52;43.35;;;19.17;;
22754;SDS011;11544;42.020;23.094;2023-02-13T00:11:19;35.83;;;17.83;;
22754;SDS011;11544;42.020;23.094;2023-02-13T00:13:46;26.35;;;14.23;;
22754;SDS011;11544;42.020;23.094;2023-02-13T00:16:13;24.10;;;13.85;;
22754;SDS011;11544;42.020;23.094;2023-02-13T00:18:40;27.30;;;13.15;;
22754;SDS011;11544;42.020;23.094;2023-02-13T00:21:08;26.80;;;13.10;;
22754;SDS011;11544;42.020;23.094;2023-02-13T00:23:37;24.52;;;12.93;;
22754;SDS011;11544;42.020;23.094;2023-02-13T00:26:12;28.48;;;13.35;;
22754;SDS011;11544;42.020;23.094;2023-02-13T00:28:41;27.70;;;14.77;;
22754;SDS011;11544;42.020;23.094;2023-02-13T00:31:15;30.23;;;13.68;;
22754;SDS011;11544;42.020;23.094;2023-02-13T00:37:56;26.08;;;12.52;;
22754;SDS011;11544;42.020;23.094;2023-02-13T00:40:23;27.63;;;13.95;;
22754;SDS011;11544;42.020;23.094;2023-02-13T00:42:54;30.38;;;14.80;;
22754;SDS011;11544;42.020;23.094;2023-02-13T00:45:24;27.75;;;14.23;;
22754;SDS011;11544;42.020;23.094;2023-02-13T00:48:13;29.13;;;13.82;;
22754;SDS011;11544;42.020;23.094;2023-02-13T00:50:41;27.63;;;14.65;;
22754;SDS011;11544;42.020;23.094;2023-02-13T00:53:11;26.38;;;14.25;;
22754;SDS011;11544;42.020;23.094;2023-02-13T00:55:37;31.05;;;14.85;;
22754;SDS011;11544;42.020;23.094;2023-02-13T00:58:05;25.52;;;13.30;;
22754;SDS011;11544;42.020;23.094;2023-02-13T01:00:32;21.00;;;12.05;;
22754;SDS011;11544;42.020;23.094;2023-02-13T01:02:59;24.35;;;13.30;;
22754;SDS011;11544;42.020;23.094;2023-02-13T01:05:29;27.30;;;12.80;;
22754;SDS011;11544;42.020;23.094;2023-02-13T01:07:55;22.48;;;12.30;;
22754;SDS011;11544;42.020;23.094;2023-02-13T01:10:23;21.05;;;11.90;;
22754;SDS011;11544;42.020;23.094;2023-02-13T01:12:51;23.90;;;12.27;;
22754;SDS011;11544;42.020;23.094;2023-02-13T01:15:19;23.25;;;11.75;;
22754;SDS011;11544;42.020;23.094;2023-02-13T01:17:52;25.77;;;13.13;;
22754;SDS011;11544;42.020;23.094;2023-02-13T01:20:24;23.63;;;12.02;;
22754;SDS011;11544;42.020;23.094;2023-02-13T01:23:07;24.77;;;12.15;;
22754;SDS011;11544;42.020;23.094;2023-02-13T01:25:38;24.73;;;12.57;;
22754;SDS011;11544;42.020;23.094;2023-02-13T01:39:33;22.88;;;11.23;;
22754;SDS011;11544;42.020;23.094;2023-02-13T01:42:01;27.90;;;11.27;;
22754;SDS011;11544;42.020;23.094;2023-02-13T01:44:47;24.55;;;12.90;;
22754;SDS011;11544;42.020;23.094;2023-02-13T01:50:39;35.00;;;16.52;;
22754;SDS011;11544;42.020;23.094;2023-02-13T01:55:54;28.20;;;15.57;;
22754;SDS011;11544;42.020;23.094;2023-02-13T01:58:46;30.98;;;14.73;;
22754;SDS011;11544;42.020;23.094;2023-02-13T02:01:19;36.00;;;16.42;;
22754;SDS011;11544;42.020;23.094;2023-02-13T02:03:51;31.38;;;14.85;;
22754;SDS011;11544;42.020;23.094;2023-02-13T02:06:29;28.27;;;15.50;;
22754;SDS011;11544;42.020;23.094;2023-02-13T02:09:14;31.98;;;15.85;;
22754;SDS011;11544;42.020;23.094;2023-02-13T02:11:50;29.48;;;15.38;;
22754;SDS011;11544;42.020;23.094;2023-02-13T02:14:32;31.30;;;15.82;;
22754;SDS011;11544;42.020;23.094;2023-02-13T02:17:03;29.13;;;14.95;;
22754;SDS011;11544;42.020;23.094;2023-02-13T02:25:49;26.77;;;12.55;;
22754;SDS011;11544;42.020;23.094;2023-02-13T02:39:27;25.08;;;12.82;;
22754;SDS011;11544;42.020;23.094;2023-02-13T02:47:53;31.30;;;15.82;;
22754;SDS011;11544;42.020;23.094;2023-02-13T02:56:30;29.65;;;16.45;;
22754;SDS011;11544;42.020;23.094;2023-02-13T03:11:41;32.80;;;16.60;;
22754;SDS011;11544;42.020;23.094;2023-02-13T03:14:09;35.63;;;17.42;;
22754;SDS011;11544;42.020;23.094;2023-02-13T03:16:53;31.23;;;14.35;;
22754;SDS011;11544;42.020;23.094;2023-02-13T03:23:02;30.42;;;15.52;;
22754;SDS011;11544;42.020;23.094;2023-02-13T03:39:42;31.85;;;16.77;;
22754;SDS011;11544;42.020;23.094;2023-02-13T03:42:39;28.80;;;13.82;;
22754;SDS011;11544;42.020;23.094;2023-02-13T03:45:17;26.73;;;11.75;;
22754;SDS011;11544;42.020;23.094;2023-02-13T03:48:07;27.42;;;13.35;;
22754;SDS011;11544;42.020;23.094;2023-02-13T03:51:08;26.30;;;14.23;;
22754;SDS011;11544;42.020;23.094;2023-02-13T04:00:48;31.05;;;14.25;;
22754;SDS011;11544;42.020;23.094;2023-02-13T04:03:44;30.95;;;14.35;;
22754;SDS011;11544;42.020;23.094;2023-02-13T04:06:19;22.85;;;11.93;;
22754;SDS011;11544;42.020;23.094;2023-02-13T04:08:50;24.95;;;12.93;;
22754;SDS011;11544;42.020;23.094;2023-02-13T04:11:24;20.30;;;11.10;;
22754;SDS011;11544;42.020;23.094;2023-02-13T04:13:59;22.58;;;11.68;;
22754;SDS011;11544;42.020;23.094;2023-02-13T04:16:36;39.10;;;16.60;;
22754;SDS011;11544;42.020;23.094;2023-02-13T04:19:15;20.42;;;10.68;;
22754;SDS011;11544;42.020;23.094;2023-02-13T04:21:58;23.05;;;10.60;;
22754;SDS011;11544;42.020;23.094;2023-02-13T04:24:28;23.25;;;11.27;;
22754;SDS011;11544;42.020;23.094;2023-02-13T04:27:06;24.92;;;13.00;;
22754;SDS011;11544;42.020;23.094;2023-02-13T04:29:36;27.27;;;11.65;;
22754;SDS011;11544;42.020;23.094;2023-02-13T04:32:03;23.08;;;12.02;;
22754;SDS011;11544;42.020;23.094;2023-02-13T04:34:30;24.75;;;11.35;;
22754;SDS011;11544;42.020;23.094;2023-02-13T04:36:58;20.45;;;10.98;;
22754;SDS011;11544;42.020;23.094;2023-02-13T04:39:30;21.50;;;10.52;;
22754;SDS011;11544;42.020;23.094;2023-02-13T04:42:05;19.13;;;9.88;;
22754;SDS011;11544;42.020;23.094;2023-02-13T04:44:32;19.90;;;10.25;;
22754;SDS011;11544;42.020;23.094;2023-02-13T04:46:59;20.02;;;10.25;;
22754;SDS011;11544;42.020;23.094;2023-02-13T04:49:26;19.60;;;9.48;;
22754;SDS011;11544;42.020;23.094;2023-02-13T04:51:53;24.52;;;11.60;;
22754;SDS011;11544;42.020;23.094;2023-02-13T04:54:21;24.05;;;10.93;;
22754;SDS011;11544;42.020;23.094;2023-02-13T04:56:48;19.83;;;10.48;;
22754;SDS011;11544;42.020;23.094;2023-02-13T04:59:15;26.90;;;13.82;;
22754;SDS011;11544;42.020;23.094;2023-02-13T05:01:48;36.13;;;17.77;;
22754;SDS011;11544;42.020;23.094;2023-02-13T05:04:22;34.97;;;16.83;;
22754;SDS011;11544;42.020;23.094;2023-02-13T05:06:49;39.33;;;19.65;;
22754;SDS011;11544;42.020;23.094;2023-02-13T05:09:16;41.20;;;19.98;;
22754;SDS011;11544;42.020;23.094;2023-02-13T05:11:43;31.25;;;17.35;;
22754;SDS011;11544;42.020;23.094;2023-02-13T05:14:11;38.67;;;18.45;;
22754;SDS011;11544;42.020;23.094;2023-02-13T05:16:38;45.03;;;20.92;;
22754;SDS011;11544;42.020;23.094;2023-02-13T05:19:08;30.90;;;14.70;;
22754;SDS011;11544;42.020;23.094;2023-02-13T05:21:41;26.10;;;13.57;;
22754;SDS011;11544;42.020;23.094;2023-02-13T05:24:26;21.48;;;11.00;;
22754;SDS011;11544;42.020;23.094;2023-02-13T05:26:57;28.38;;;14.02;;
22754;SDS011;11544;42.020;23.094;2023-02-13T05:29:24;25.88;;;11.93;;
22754;SDS011;11544;42.020;23.094;2023-02-13T05:31:52;30.70;;;11.70;;
22754;SDS011;11544;42.020;23.094;2023-02-13T05:34:22;22.98;;;11.70;;
22754;SDS011;11544;42.020;23.094;2023-02-13T05:36:50;27.48;;;12.90;;
22754;SDS011;11544;42.020;23.094;2023-02-13T05:39:17;22.08;;;11.50;;
22754;SDS011;11544;42.020;23.094;2023-02-13T05:41:45;21.30;;;9.98;;
22754;SDS011;11544;42.020;23.094;2023-02-13T05:44:16;20.13;;;10.55;;
22754;SDS011;11544;42.020;23.094;2023-02-13T05:46:46;21.42;;;11.23;;
22754;SDS011;11544;42.020;23.094;2023-02-13T05:49:13;23.25;;;10.88;;
22754;SDS011;11544;42.020;23.094;2023-02-13T05:51:41;21.52;;;11.13;;
22754;SDS011;11544;42.020;23.094;2023-02-13T05:54:08;20.52;;;11.23;;
22754;SDS011;11544;42.020;23.094;2023-02-13T05:56:35;24.80;;;12.52;;
22754;SDS011;11544;42.020;23.094;2023-02-13T05:59:02;30.83;;;12.60;;
22754;SDS011;11544;42.020;23.094;2023-02-13T06:01:36;24.05;;;12.93;;
22754;SDS011;11544;42.020;23.094;2023-02-13T06:07:33;22.58;;;11.13;;
22754;SDS011;11544;42.020;23.094;2023-02-13T06:10:10;26.40;;;14.05;;
22754;SDS011;11544;42.020;23.094;2023-02-13T06:24:14;27.60;;;12.18;;
22754;SDS011;11544;42.020;23.094;2023-02-13T06:27:27;34.65;;;13.07;;
22754;SDS011;11544;42.020;23.094;2023-02-13T06:30:46;24.60;;;11.07;;
22754;SDS011;11544;42.020;23.094;2023-02-13T06:34:18;24.08;;;11.50;;
22754;SDS011;11544;42.020;23.094;2023-02-13T06:37:28;25.52;;;12.07;;
22754;SDS011;11544;42.020;23.094;2023-02-13T06:44:16;44.10;;;20.05;;
22754;SDS011;11544;42.020;23.094;2023-02-13T06:47:27;47.22;;;22.30;;
22754;SDS011;11544;42.020;23.094;2023-02-13T06:50:49;47.10;;;23.40;;
22754;SDS011;11544;42.020;23.094;2023-02-13T06:58:12;50.72;;;23.73;;
22754;SDS011;11544;42.020;23.094;2023-02-13T07:01:26;59.22;;;28.63;;
22754;SDS011;11544;42.020;23.094;2023-02-13T07:04:48;56.92;;;28.27;;
22754;SDS011;11544;42.020;23.094;2023-02-13T07:07:54;55.85;;;27.33;;
22754;SDS011;11544;42.020;23.094;2023-02-13T07:11:15;60.55;;;29.13;;
22754;SDS011;11544;42.020;23.094;2023-02-13T07:14:15;59.38;;;27.25;;
22754;SDS011;11544;42.020;23.094;2023-02-13T07:17:58;50.28;;;26.23;;
22754;SDS011;11544;42.020;23.094;2023-02-13T07:21:14;55.13;;;27.90;;
22754;SDS011;11544;42.020;23.094;2023-02-13T07:24:46;61.97;;;27.92;;
22754;SDS011;11544;42.020;23.094;2023-02-13T07:30:14;57.78;;;28.90;;
22754;SDS011;11544;42.020;23.094;2023-02-13T07:33:23;66.97;;;29.85;;
22754;SDS011;11544;42.020;23.094;2023-02-13T07:36:21;62.47;;;28.65;;
22754;SDS011;11544;42.020;23.094;2023-02-13T08:03:21;55.17;;;27.23;;
22754;SDS011;11544;42.020;23.094;2023-02-13T08:06:22;57.42;;;27.45;;
22754;SDS011;11544;42.020;23.094;2023-02-13T08:10:03;55.35;;;26.67;;
22754;SDS011;11544;42.020;23.094;2023-02-13T08:13:24;55.58;;;26.50;;
22754;SDS011;11544;42.020;23.094;2023-02-13T08:23:39;48.17;;;23.58;;
22754;SDS011;11544;42.020;23.094;2023-02-13T08:26:58;54.92;;;25.80;;
22754;SDS011;11544;42.020;23.094;2023-02-13T08:29:57;56.83;;;24.70;;
22754;SDS011;11544;42.020;23.094;2023-02-13T08:33:33;52.88;;;24.73;;
22754;SDS011;11544;42.020;23.094;2023-02-13T08:39:46;42.58;;;21.00;;
22754;SDS011;11544;42.020;23.094;2023-02-13T08:43:02;45.13;;;23.65;;
22754;SDS011;11544;42.020;23.094;2023-02-13T08:46:24;47.40;;;23.20;;
22754;SDS011;11544;42.020;23.094;2023-02-13T08:49:07;44.60;;;22.10;;
22754;SDS011;11544;42.020;23.094;2023-02-13T08:51:34;43.15;;;22.73;;
22754;SDS011;11544;42.020;23.094;2023-02-13T08:54:36;43.70;;;21.33;;
22754;SDS011;11544;42.020;23.094;2023-02-13T08:57:24;47.97;;;21.85;;
22754;SDS011;11544;42.020;23.094;2023-02-13T09:00:00;47.25;;;21.88;;
22754;SDS011;11544;42.020;23.094;2023-02-13T09:02:44;52.05;;;23.65;;
22754;SDS011;11544;42.020;23.094;2023-02-13T09:09:30;46.65;;;22.77;;
22754;SDS011;11544;42.020;23.094;2023-02-13T09:12:44;44.80;;;21.85;;
22754;SDS011;11544;42.020;23.094;2023-02-13T09:16:12;45.92;;;20.88;;
22754;SDS011;11544;42.020;23.094;2023-02-13T09:19:34;41.22;;;20.98;;
22754;SDS011;11544;42.020;23.094;2023-02-13T09:26:03;45.03;;;22.67;;
22754;SDS011;11544;42.020;23.094;2023-02-13T09:29:01;45.80;;;22.67;;
22754;SDS011;11544;42.020;23.094;2023-02-13T09:31:45;40.97;;;20.75;;
22754;SDS011;11544;42.020;23.094;2023-02-13T09:38:00;41.10;;;20.98;;
22754;SDS011;11544;42.020;23.094;2023-02-13T09:41:39;45.22;;;21.02;;
22754;SDS011;11544;42.020;23.094;2023-02-13T09:45:22;49.72;;;21.15;;
22754;SDS011;11544;42.020;23.094;2023-02-13T13:05:53;20.08;;;10.02;;
22754;SDS011;11544;42.020;23.094;2023-02-13T13:21:11;20.67;;;11.05;;
22754;SDS011;11544;42.020;23.094;2023-02-13T13:30:47;22.90;;;11.68;;
22754;SDS011;11544;42.020;23.094;2023-02-13T13:33:48;23.40;;;10.73;;
22754;SDS011;11544;42.020;23.094;2023-02-13T13:50:29;18.23;;;10.40;;
22754;SDS011;11544;42.020;23.094;2023-02-13T13:53:26;16.73;;;8.90;;
22754;SDS011;11544;42.020;23.094;2023-02-13T13:56:26;18.45;;;10.25;;
22754;SDS011;11544;42.020;23.094;2023-02-13T14:09:36;20.20;;;9.32;;
22754;SDS011;11544;42.020;23.094;2023-02-13T14:11:52;24.73;;;11.05;;
22754;SDS011;11544;42.020;23.094;2023-02-13T14:14:43;23.60;;;11.43;;
22754;SDS011;11544;42.020;23.094;2023-02-13T14:17:50;20.42;;;9.73;;
22754;SDS011;11544;42.020;23.094;2023-02-13T14:20:48;22.67;;;10.80;;
22754;SDS011;11544;42.020;23.094;2023-02-13T14:29:20;18.48;;;9.68;;
22754;SDS011;11544;42.020;23.094;2023-02-13T14:32:00;17.60;;;9.23;;
22754;SDS011;11544;42.020;23.094;2023-02-13T14:35:22;15.27;;;8.50;;
22754;SDS011;11544;42.020;23.094;2023-02-13T14:38:20;24.42;;;11.68;;
22754;SDS011;11544;42.020;23.094;2023-02-13T14:47:30;27.60;;;11.30;;
22754;SDS011;11544;42.020;23.094;2023-02-13T14:50:14;27.55;;;12.25;;
22754;SDS011;11544;42.020;23.094;2023-02-13T14:53:07;16.45;;;8.32;;
22754;SDS011;11544;42.020;23.094;2023-02-13T14:56:22;22.33;;;8.88;;
22754;SDS011;11544;42.020;23.094;2023-02-13T15:17:04;27.92;;;12.38;;
22754;SDS011;11544;42.020;23.094;2023-02-13T15:20:26;21.10;;;10.13;;
22754;SDS011;11544;42.020;23.094;2023-02-13T15:23:18;20.92;;;9.77;;
22754;SDS011;11544;42.020;23.094;2023-02-13T15:26:27;18.15;;;9.93;;
22754;SDS011;11544;42.020;23.094;2023-02-13T15:29:34;25.73;;;11.27;;
22754;SDS011;11544;42.020;23.094;2023-02-13T15:32:34;23.70;;;12.20;;
22754;SDS011;11544;42.020;23.094;2023-02-13T15:47:27;26.17;;;12.60;;
22754;SDS011;11544;42.020;23.094;2023-02-13T15:50:11;25.30;;;12.55;;
22754;SDS011;11544;42.020;23.094;2023-02-13T15:53:21;41.97;;;19.33;;
22754;SDS011;11544;42.020;23.094;2023-02-13T15:55:55;38.50;;;19.52;;
22754;SDS011;11544;42.020;23.094;2023-02-13T15:58:28;36.97;;;17.90;;
22754;SDS011;11544;42.020;23.094;2023-02-13T16:01:07;50.53;;;23.10;;
22754;SDS011;11544;42.020;23.094;2023-02-13T16:03:34;44.78;;;21.77;;
22754;SDS011;11544;42.020;23.094;2023-02-13T16:06:05;46.35;;;21.85;;
22754;SDS011;11544;42.020;23.094;2023-02-13T16:08:34;44.20;;;20.88;;
22754;SDS011;11544;42.020;23.094;2023-02-13T16:11:08;42.95;;;20.35;;
22754;SDS011;11544;42.020;23.094;2023-02-13T16:16:25;31.83;;;14.80;;
22754;SDS011;11544;42.020;23.094;2023-02-13T16:18:54;24.48;;;12.40;;
22754;SDS011;11544;42.020;23.094;2023-02-13T16:21:22;30.88;;;14.15;;
22754;SDS011;11544;42.020;23.094;2023-02-13T16:23:56;33.28;;;13.68;;
22754;SDS011;11544;42.020;23.094;2023-02-13T16:26:28;21.02;;;10.85;;
22754;SDS011;11544;42.020;23.094;2023-02-13T16:28:56;29.85;;;11.15;;
22754;SDS011;11544;42.020;23.094;2023-02-13T16:31:24;19.52;;;9.57;;
22754;SDS011;11544;42.020;23.094;2023-02-13T16:33:51;25.30;;;11.82;;
22754;SDS011;11544;42.020;23.094;2023-02-13T16:36:25;20.48;;;9.80;;
22754;SDS011;11544;42.020;23.094;2023-02-13T16:39:09;19.13;;;9.82;;
22754;SDS011;11544;42.020;23.094;2023-02-13T16:41:44;20.77;;;11.13;;
22754;SDS011;11544;42.020;23.094;2023-02-13T16:47:29;24.70;;;11.25;;
22754;SDS011;11544;42.020;23.094;2023-02-13T16:50:29;21.35;;;10.90;;
22754;SDS011;11544;42.020;23.094;2023-02-13T16:53:32;20.73;;;9.38;;
22754;SDS011;11544;42.020;23.094;2023-02-13T16:56:05;23.27;;;9.30;;
22754;SDS011;11544;42.020;23.094;2023-02-13T16:58:37;18.90;;;9.73;;
22754;SDS011;11544;42.020;23.094;2023-02-13T17:01:04;16.75;;;8.90;;
22754;SDS011;11544;42.020;23.094;2023-02-13T17:03:32;19.27;;;10.07;;
22754;SDS011;11544;42.020;23.094;2023-02-13T17:06:11;19.88;;;10.90;;
22754;SDS011;11544;42.020;23.094;2023-02-13T17:08:58;24.17;;;11.77;;
22754;SDS011;11544;42.020;23.094;2023-02-13T17:11:54;23.58;;;11.73;;
22754;SDS011;11544;42.020;23.094;2023-02-13T17:14:56;21.58;;;11.48;;
22754;SDS011;11544;42.020;23.094;2023-02-13T17:17:29;16.63;;;9.40;;
22754;SDS011;11544;42.020;23.094;2023-02-13T17:19:57;18.95;;;8.70;;
22754;SDS011;11544;42.020;23.094;2023-02-13T17:22:33;20.70;;;10.15;;
22754;SDS011;11544;42.020;23.094;2023-02-13T17:25:02;17.50;;;9.73;;
22754;SDS011;11544;42.020;23.094;2023-02-13T17:27:33;19.70;;;10.85;;
22754;SDS011;11544;42.020;23.094;2023-02-13T17:30:00;20.48;;;10.23;;
22754;SDS011;11544;42.020;23.094;2023-02-13T17:32:28;25.38;;;12.20;;
22754;SDS011;11544;42.020;23.094;2023-02-13T17:34:55;25.33;;;12.32;;
22754;SDS011;11544;42.020;23.094;2023-02-13T17:37:24;23.85;;;11.65;;
22754;SDS011;11544;42.020;23.094;2023-02-13T17:39:52;19.52;;;9.82;;
22754;SDS011;11544;42.020;23.094;2023-02-13T17:44:48;23.90;;;11.73;;
22754;SDS011;11544;42.020;23.094;2023-02-13T17:47:17;21.30;;;10.25;;
22754;SDS011;11544;42.020;23.094;2023-02-13T17:49:45;26.75;;;15.00;;
22754;SDS011;11544;42.020;23.094;2023-02-13T17:52:14;29.20;;;12.93;;
22754;SDS011;11544;42.020;23.094;2023-02-13T17:54:47;20.48;;;10.45;;
22754;SDS011;11544;42.020;23.094;2023-02-13T17:57:15;21.45;;;10.77;;
22754;SDS011;11544;42.020;23.094;2023-02-13T17:59:52;23.42;;;10.88;;
22754;SDS011;11544;42.020;23.094;2023-02-13T18:02:21;20.13;;;9.80;;
22754;SDS011;11544;42.020;23.094;2023-02-13T18:04:50;21.42;;;9.77;;
22754;SDS011;11544;42.020;23.094;2023-02-13T18:07:17;21.02;;;9.80;;
22754;SDS011;11544;42.020;23.094;2023-02-13T18:09:47;20.42;;;9.70;;
22754;SDS011;11544;42.020;23.094;2023-02-13T18:12:15;18.38;;;8.68;;
22754;SDS011;11544;42.020;23.094;2023-02-13T18:14:44;18.67;;;9.07;;
22754;SDS011;11544;42.020;23.094;2023-02-13T18:17:16;17.38;;;8.02;;
22754;SDS011;11544;42.020;23.094;2023-02-13T18:19:58;19.08;;;8.30;;
22754;SDS011;11544;42.020;23.094;2023-02-13T18:22:25;19.60;;;8.77;;
22754;SDS011;11544;42.020;23.094;2023-02-13T18:24:52;20.63;;;8.75;;
22754;SDS011;11544;42.020;23.094;2023-02-13T18:27:19;17.38;;;8.30;;
22754;SDS011;11544;42.020;23.094;2023-02-13T18:29:54;18.65;;;8.38;;
22754;SDS011;11544;42.020;23.094;2023-02-13T18:32:22;15.23;;;8.30;;
22754;SDS011;11544;42.020;23.094;2023-02-13T18:34:49;17.33;;;7.70;;
22754;SDS011;11544;42.020;23.094;2023-02-13T18:37:18;16.05;;;8.70;;
22754;SDS011;11544;42.020;23.094;2023-02-13T18:39:45;16.15;;;7.05;;
22754;SDS011;11544;42.020;23.094;2023-02-13T18:42:12;13.15;;;5.95;;
22754;SDS011;11544;42.020;23.094;2023-02-13T18:44:40;14.82;;;8.23;;
22754;SDS011;11544;42.020;23.094;2023-02-13T18:47:07;17.52;;;8.05;;
22754;SDS011;11544;42.020;23.094;2023-02-13T18:49:34;23.60;;;8.80;;
22754;SDS011;11544;42.020;23.094;2023-02-13T18:52:00;14.23;;;6.55;;
22754;SDS011;11544;42.020;23.094;2023-02-13T18:54:27;19.90;;;8.30;;
22754;SDS011;11544;42.020;23.094;2023-02-13T18:56:54;19.92;;;9.00;;
22754;SDS011;11544;42.020;23.094;2023-02-13T18:59:22;21.63;;;9.48;;
22754;SDS011;11544;42.020;23.094;2023-02-13T19:01:49;24.08;;;8.95;;
22754;SDS011;11544;42.020;23.094;2023-02-13T19:04:16;25.88;;;9.45;;
22754;SDS011;11544;42.020;23.094;2023-02-13T19:06:43;22.02;;;9.63;;
22754;SDS011;11544;42.020;23.094;2023-02-13T19:09:11;20.38;;;8.82;;
22754;SDS011;11544;42.020;23.094;2023-02-13T19:11:39;25.48;;;11.48;;
22754;SDS011;11544;42.020;23.094;2023-02-13T19:14:06;22.45;;;9.90;;
22754;SDS011;11544;42.020;23.094;2023-02-13T19:16:37;19.23;;;10.10;;
22754;SDS011;11544;42.020;23.094;2023-02-13T19:19:04;21.63;;;11.43;;
22754;SDS011;11544;42.020;23.094;2023-02-13T19:21:36;23.67;;;11.45;;
22754;SDS011;11544;42.020;23.094;2023-02-13T19:24:07;19.38;;;9.57;;
22754;SDS011;11544;42.020;23.094;2023-02-13T19:26:37;21.98;;;9.73;;
22754;SDS011;11544;42.020;23.094;2023-02-13T19:29:14;21.38;;;10.05;;
22754;SDS011;11544;42.020;23.094;2023-02-13T19:31:41;23.77;;;9.45;;
22754;SDS011;11544;42.020;23.094;2023-02-13T19:34:08;18.27;;;8.85;;
22754;SDS011;11544;42.020;23.094;2023-02-13T19:36:35;21.33;;;10.10;;
22754;SDS011;11544;42.020;23.094;2023-02-13T19:39:04;21.40;;;10.45;;
22754;SDS011;11544;42.020;23.094;2023-02-13T19:41:34;18.75;;;9.18;;
22754;SDS011;11544;42.020;23.094;2023-02-13T19:44:01;15.98;;;7.60;;
22754;SDS011;11544;42.020;23.094;2023-02-13T19:46:34;17.65;;;9.00;;
22754;SDS011;11544;42.020;23.094;2023-02-13T19:49:05;18.38;;;9.00;;
22754;SDS011;11544;42.020;23.094;2023-02-13T19:51:33;19.25;;;8.82;;
22754;SDS011;11544;42.020;23.094;2023-02-13T19:54:05;21.08;;;9.57;;
22754;SDS011;11544;42.020;23.094;2023-02-13T19:56:35;18.50;;;8.35;;
22754;SDS011;11544;42.020;23.094;2023-02-13T19:59:03;21.48;;;9.20;;
22754;SDS011;11544;42.020;23.094;2023-02-13T20:01:32;17.95;;;8.88;;
22754;SDS011;11544;42.020;23.094;2023-02-13T20:03:59;18.50;;;7.88;;
22754;SDS011;11544;42.020;23.094;2023-02-13T20:06:32;18.50;;;9.15;;
22754;SDS011;11544;42.020;23.094;2023-02-13T20:09:05;22.65;;;9.73;;
22754;SDS011;11544;42.020;23.094;2023-02-13T20:11:35;15.23;;;7.55;;
22754;SDS011;11544;42.020;23.094;2023-02-13T20:14:02;19.90;;;8.02;;
22754;SDS011;11544;42.020;23.094;2023-02-13T20:16:31;20.40;;;8.68;;
22754;SDS011;11544;42.020;23.094;2023-02-13T20:19:01;18.38;;;9.27;;
22754;SDS011;11544;42.020;23.094;2023-02-13T20:21:39;19.70;;;9.90;;
22754;SDS011;11544;42.020;23.094;2023-02-13T20:24:07;21.95;;;10.00;;
22754;SDS011;11544;42.020;23.094;2023-02-13T20:26:36;21.05;;;10.05;;
22754;SDS011;11544;42.020;23.094;2023-02-13T20:29:04;18.42;;;9.95;;
22754;SDS011;11544;42.020;23.094;2023-02-13T20:31:31;19.27;;;10.18;;
22754;SDS011;11544;42.020;23.094;2023-02-13T20:34:04;21.00;;;10.38;;
22754;SDS011;11544;42.020;23.094;2023-02-13T20:36:32;19.92;;;10.02;;
22754;SDS011;11544;42.020;23.094;2023-02-13T20:39:17;22.88;;;10.70;;
22754;SDS011;11544;42.020;23.094;2023-02-13T20:41:47;19.33;;;9.27;;
22754;SDS011;11544;42.020;23.094;2023-02-13T20:44:18;20.55;;;8.60;;
22754;SDS011;11544;42.020;23.094;2023-02-13T21:05:48;12.27;;;6.20;;
22754;SDS011;11544;42.020;23.094;2023-02-13T21:08:16;15.50;;;7.72;;
22754;SDS011;11544;42.020;23.094;2023-02-13T21:10:59;16.60;;;7.88;;
22754;SDS011;11544;42.020;23.094;2023-02-13T21:13:35;16.42;;;8.75;;
22754;SDS011;11544;42.020;23.094;2023-02-13T21:18:52;15.30;;;7.57;;
22754;SDS011;11544;42.020;23.094;2023-02-13T21:21:25;14.02;;;7.32;;
22754;SDS011;11544;42.020;23.094;2023-02-13T21:24:05;18.75;;;8.00;;
22754;SDS011;11544;42.020;23.094;2023-02-13T21:26:39;17.55;;;8.48;;
22754;SDS011;11544;42.020;23.094;2023-02-13T21:29:17;14.50;;;7.47;;
22754;SDS011;11544;42.020;23.094;2023-02-13T21:31:45;15.75;;;7.95;;
22754;SDS011;11544;42.020;23.094;2023-02-13T21:34:16;17.48;;;7.43;;
22754;SDS011;11544;42.020;23.094;2023-02-13T21:36:55;18.85;;;8.45;;
22754;SDS011;11544;42.020;23.094;2023-02-13T21:39:33;16.17;;;8.32;;
22754;SDS011;11544;42.020;23.094;2023-02-13T21:42:03;16.05;;;7.75;;
22754;SDS011;11544;42.020;23.094;2023-02-13T21:48:16;13.15;;;7.05;;
22754;SDS011;11544;42.020;23.094;2023-02-13T21:50:43;20.27;;;8.98;;
22754;SDS011;11544;42.020;23.094;2023-02-13T21:53:10;17.65;;;8.18;;
22754;SDS011;11544;42.020;23.094;2023-02-13T22:06:38;19.05;;;8.95;;
22754;SDS011;11544;42.020;23.094;2023-02-13T22:09:13;14.63;;;7.38;;
22754;SDS011;11544;42.020;23.094;2023-02-13T22:11:57;16.63;;;8.40;;
22754;SDS011;11544;42.020;23.094;2023-02-13T22:14:39;20.60;;;8.57;;
22754;SDS011;11544;42.020;23.094;2023-02-13T22:17:17;20.60;;;9.38;;
22754;SDS011;11544;42.020;23.094;2023-02-13T22:19:55;19.98;;;8.00;;
22754;SDS011;11544;42.020;23.094;2023-02-13T22:33:58;21.70;;;8.23;;
22754;SDS011;11544;42.020;23.094;2023-02-13T22:36:54;19.20;;;8.52;;
22754;SDS011;11544;42.020;23.094;2023-02-13T22:39:40;19.58;;;8.55;;
22754;SDS011;11544;42.020;23.094;2023-02-13T22:42:51;19.02;;;8.60;;
22754;SDS011;11544;42.020;23.094;2023-02-13T22:45:45;20.85;;;9.88;;
22754;SDS011;11544;42.020;23.094;2023-02-13T22:48:30;26.58;;;11.65;;
22754;SDS011;11544;42.020;23.094;2023-02-13T22:51:07;30.13;;;13.73;;
22754;SDS011;11544;42.020;23.094;2023-02-13T22:53:38;23.48;;;11.10;;
22754;SDS011;11544;42.020;23.094;2023-02-13T22:56:35;19.42;;;9.43;;
22754;SDS011;11544;42.020;23.094;2023-02-13T22:59:40;19.27;;;8.75;;
22754;SDS011;11544;42.020;23.094;2023-02-13T23:02:17;16.80;;;8.68;;
22754;SDS011;11544;42.020;23.094;2023-02-13T23:12:42;16.73;;;7.80;;
22754;SDS011;11544;42.020;23.094;2023-02-13T23:19:19;20.52;;;7.65;;
22754;SDS011;11544;42.020;23.094;2023-02-13T23:21:47;16.95;;;6.70;;
22754;SDS011;11544;42.020;23.094;2023-02-13T23:24:22;14.65;;;6.95;;
22754;SDS011;11544;42.020;23.094;2023-02-13T23:26:51;13.20;;;7.13;;
22754;SDS011;11544;42.020;23.094;2023-02-13T23:29:32;13.88;;;8.13;;
22754;SDS011;11544;42.020;23.094;2023-02-13T23:32:07;16.27;;;8.20;;
22754;SDS011;11544;42.020;23.094;2023-02-13T23:34:41;18.38;;;8.07;;
22754;SDS011;11544;42.020;23.094;2023-02-13T23:37:22;14.82;;;7.57;;
22754;SDS011;11544;42.020;23.094;2023-02-13T23:40:21;16.58;;;7.10;;
22754;SDS011;11544;42.020;23.094;2023-02-13T23:43:12;18.60;;;8.13;;
